岡山グライダークラブ活動状況掲示板あなたは無料カウンター人目の訪問者です

岡山グライダークラブ
岡山市浦安南町639-1 岡南飛行場
 使用機:シャイベ式 SF25C型 ファルケ   JA2330
      ヴァレンティン式17E型 タイフーン  JA2342
 練習日:毎日曜日  クラブルーム:電話 086-265-1810
この掲示板は岡山グライダークラブの活動状況をお知らせする掲示板です。
!!!この掲示板は投稿規制をしています。!!!
クラブ関連各種情報は 岡山グライダークラブクラブルーム      を       .
  ブリーフイング情報は  岡山グライダークラブブリーフィングルーム  をご覧下さい。 .
※写真はクリックすると拡大して見ることが出来ます。
岡南飛行場へのアクセス等は 岡南飛行場管理事務所 をご覧ください。
クラブの ホームページ ができました。

 
12月16日
by OGC at 2018/12/16(日) 20:40:43 No.20181216203843  削除コメント
1024 x 768 x 86,176バイト
No.1

12月09日
本日の参加者
  会員      11名
  その他      1名


@本日の様子




METAR
RJOB 160100Z 06005KT 9999 FEW015 BKN120 05/02 Q1023
RJOT 160100Z 11003KT 9999 FEW025 SCT120 BKN140 06/02 Q1023
RJOA 160100Z 11003KT 050V160 9999 FEW020 BKN035 BKN110 05/01 Q1023
TAF
RJOB 152307Z 1600/1706 09004KT 9999 FEW015
          BECMG 1607/1609 3000 -RA BR BCFG FEW000 BKN008 BKN020
          TEMPO 1609/1615 1500 RA BR BCFG FEW000 SCT003 BKN005
          BECMG 1618/1621 26013KT 9999 NSW FEW015 BKN045
RJOT 152309Z 1600/1706 06005KT 9999 FEW020 SCT045
          BECMG 1606/1608 4000 -RA BR FEW003 BKN008 BKN015
          TEMPO 1608/1615 1500 RA BR BCFG FEW000 SCT003 BKN005
          BECMG 1609/1611 20005KT
          BECMG 1618/1621 9999 NSW FEW015 SCT045
          BECMG 1700/1703 27015KT
RJOA 152306Z 1600/1706 20004KT 9999 FEW015 SCT025
          BECMG 1603/1605 3000 -RA BR BCFG FEW000 SCT005 BKN008
          TEMPO 1605/1609 0700 RA FG FEW000 SCT001 BKN003
          TEMPO 1609/1611 1500 -SHRA BR BCFG FEW000 SCT003 BKN005
          BECMG 1615/1618 9999 NSW FEW015 BKN030
          BECMG 1700/1703 29013KT

本日は曇り空で夕方ごろから雨が予想されました。上空は予想以上に上昇率がよく、沈降も少ないコンディションでした。
訓練フライトはいつものTGL訓練に小豆島までのNAV訓練を行い、予想より早く雨が降り始めたことから、本日は早めの解散となりました。


解散    15:50

1番機  11:00離陸 撤収機  15:10着陸 

SF25C JA2330 ファルケ     07Flt.2h25min  
17E   JA2342 タイフーン    02Flt.0h45min  
合計                    09Flt.3h10min

    << 戻る || ホームページ || 最新の掲示板へ